createdAt,value
2017-12-21T08:47:09.489Z,100281.55
2017-12-21T08:49:40.508Z,100290.10
2017-12-21T08:52:11.381Z,100297.87
2017-12-21T08:54:42.852Z,100290.95
2017-12-21T08:57:12.806Z,100289.67
2017-12-21T08:59:42.358Z,100294.17
2017-12-21T09:02:12.413Z,100288.62
2017-12-21T09:04:42.841Z,100279.86
2017-12-21T09:07:13.858Z,100284.87
2017-12-21T09:09:47.693Z,100288.42
2017-12-21T09:12:17.631Z,100280.25
2017-12-21T09:14:47.579Z,100275.94
2017-12-21T09:17:19.643Z,100278.63
2017-12-21T09:19:50.217Z,100281.94
2017-12-21T09:22:21.964Z,100281.08
2017-12-21T09:24:53.903Z,100291.31
2017-12-21T09:27:24.977Z,100291.30
2017-12-21T09:29:55.647Z,100300.83
2017-12-21T09:32:27.357Z,100297.09
2017-12-21T09:34:58.382Z,100294.45
2017-12-21T09:37:41.007Z,100296.70
2017-12-21T09:40:32.088Z,100294.45
2017-12-21T09:45:47.328Z,100289.79
2017-12-21T09:48:17.671Z,100292.98
2017-12-21T09:50:47.795Z,100292.66
2017-12-21T09:53:18.816Z,100292.98
2017-12-21T09:55:49.007Z,100290.13
2017-12-21T09:58:19.254Z,100293.70
2017-12-21T10:00:49.041Z,100294.67
2017-12-21T10:03:19.507Z,100295.89
2017-12-21T10:05:49.588Z,100291.61
2017-12-21T10:08:24.997Z,100291.92
2017-12-21T10:10:55.688Z,100280.22
2017-12-21T10:13:25.858Z,100283.59
2017-12-21T10:15:56.001Z,100284.11
2017-12-21T10:18:26.143Z,100272.65
2017-12-21T10:20:55.944Z,100273.92
2017-12-21T10:23:26.813Z,100263.97
2017-12-21T10:25:56.412Z,100272.14
2017-12-21T10:28:25.984Z,100258.89
2017-12-21T10:30:59.493Z,100262.81
2017-12-21T10:33:45.254Z,100263.24
2017-12-21T10:36:15.281Z,100255.73
2017-12-21T10:38:45.519Z,100256.25
2017-12-21T10:41:15.689Z,100249.20
2017-12-21T10:43:52.929Z,100250.45
2017-12-21T10:46:23.174Z,100244.83
2017-12-21T10:48:53.109Z,100253.45
2017-12-21T10:51:23.733Z,100248.23
2017-12-21T10:53:53.772Z,100251.23
2017-12-21T10:56:23.623Z,100252.53
2017-12-21T10:58:53.984Z,100247.70
2017-12-21T11:01:24.585Z,100245.68
2017-12-21T11:03:59.454Z,100245.51
2017-12-21T11:06:34.714Z,100253.53
2017-12-21T11:09:10.086Z,100249.11
2017-12-21T11:11:41.056Z,100234.88
2017-12-21T11:14:10.904Z,100241.19
2017-12-21T11:16:43.940Z,100236.31
2017-12-21T11:19:20.507Z,100233.78
2017-12-21T11:21:51.868Z,100240.30
2017-12-21T11:24:22.415Z,100229.28
2017-12-21T11:26:52.815Z,100234.32
2017-12-21T11:29:23.008Z,100229.20
2017-12-21T11:31:55.440Z,100225.06
2017-12-21T11:34:25.424Z,100221.36
2017-12-21T11:36:55.206Z,100217.38
2017-12-21T11:39:25.259Z,100216.79
2017-12-21T11:41:55.101Z,100217.14
2017-12-21T11:44:25.011Z,100217.89
2017-12-21T11:46:56.501Z,100213.00
2017-12-21T11:49:26.622Z,100202.98
2017-12-21T11:51:56.359Z,100207.75
2017-12-21T11:54:26.234Z,100219.16
2017-12-21T11:56:57.161Z,100214.91
2017-12-21T11:59:27.940Z,100210.26
2017-12-21T12:01:59.259Z,100208.09
2017-12-21T12:04:29.919Z,100203.34
2017-12-21T12:06:59.612Z,100204.16
2017-12-21T12:09:29.797Z,100199.38
2017-12-21T12:12:00.733Z,100200.87
2017-12-21T12:14:30.972Z,100196.34
2017-12-21T12:17:01.916Z,100191.83
2017-12-21T12:19:31.993Z,100181.42
2017-12-21T12:22:02.514Z,100178.05
2017-12-21T12:24:34.964Z,100179.63
2017-12-21T12:27:07.927Z,100178.52
2017-12-21T12:29:39.841Z,100177.57
2017-12-21T12:32:10.515Z,100182.56
2017-12-21T12:34:41.348Z,100167.38
2017-12-21T12:37:12.762Z,100159.78
2017-12-21T12:39:43.237Z,100166.23
2017-12-21T12:42:14.140Z,100169.21
2017-12-21T12:44:50.742Z,100165.11
2017-12-21T12:47:22.218Z,100165.33
2017-12-21T12:49:52.849Z,100168.66
2017-12-21T12:52:25.092Z,100158.67
2017-12-21T12:54:58.156Z,100155.16
2017-12-21T12:57:29.940Z,100150.61
2017-12-21T13:00:03.212Z,100153.42
2017-12-21T13:02:35.273Z,100156.50
2017-12-21T13:05:11.675Z,100154.06
2017-12-21T13:07:41.965Z,100149.49
2017-12-21T13:10:12.572Z,100143.73
2017-12-21T13:12:43.000Z,100146.59
2017-12-21T13:15:17.533Z,100161.02
2017-12-21T13:17:49.070Z,100154.60
2017-12-21T13:20:19.375Z,100159.69
2017-12-21T13:22:52.012Z,100157.17
2017-12-21T13:25:22.556Z,100161.98
2017-12-21T13:27:52.516Z,100162.25
2017-12-21T13:30:24.999Z,100170.22
2017-12-21T13:32:54.825Z,100171.20
2017-12-21T13:35:26.149Z,100172.87
2017-12-21T13:37:57.927Z,100172.95
2017-12-21T13:40:28.279Z,100174.88
2017-12-21T13:42:58.665Z,100172.05
2017-12-21T13:45:32.469Z,100174.30
2017-12-21T13:48:04.888Z,100169.12
2017-12-21T13:50:35.391Z,100176.13
2017-12-21T13:53:05.356Z,100172.36
2017-12-21T13:55:36.461Z,100178.45
2017-12-21T13:58:14.758Z,100180.30
2017-12-21T14:00:47.969Z,100177.29
2017-12-21T14:03:21.028Z,100182.31
2017-12-21T14:05:52.396Z,100194.60
2017-12-21T14:08:23.006Z,100191.74
2017-12-21T14:10:53.338Z,100188.89
2017-12-21T14:13:23.598Z,100191.73
2017-12-21T14:15:54.069Z,100198.23
2017-12-21T14:18:24.431Z,100193.92
2017-12-21T14:20:56.361Z,100194.90
2017-12-21T14:23:26.701Z,100200.48
2017-12-21T14:25:56.640Z,100200.23
2017-12-21T14:28:28.565Z,100194.38
2017-12-21T14:31:03.261Z,100201.22
2017-12-21T14:33:33.232Z,100199.89
2017-12-21T14:36:12.012Z,100200.41
2017-12-21T14:38:44.434Z,100200.66
2017-12-21T14:41:14.566Z,100203.99
2017-12-21T14:43:46.879Z,100203.61
2017-12-21T14:46:17.172Z,100197.16
2017-12-21T14:48:47.787Z,100205.83
2017-12-21T14:51:23.819Z,100209.67
2017-12-21T14:53:56.223Z,100211.12
2017-12-21T14:56:31.071Z,100215.59
2017-12-21T14:59:06.217Z,100207.15
2017-12-21T15:01:40.625Z,100201.17
2017-12-21T15:04:14.173Z,100203.52
2017-12-21T15:06:44.779Z,100209.59
2017-12-21T15:09:17.630Z,100211.33
2017-12-21T15:11:55.687Z,100206.77
2017-12-21T15:14:28.716Z,100208.27
2017-12-21T15:17:06.946Z,100217.86
2017-12-21T15:19:40.147Z,100219.41
2017-12-21T15:22:15.961Z,100233.45
2017-12-21T15:24:55.415Z,100229.86
2017-12-21T15:27:30.087Z,100225.80
2017-12-21T15:30:08.068Z,100230.19
2017-12-21T15:32:39.431Z,100234.77
2017-12-21T15:35:12.107Z,100229.68
2017-12-21T15:37:43.600Z,100237.80
2017-12-21T15:40:15.895Z,100239.67
2017-12-21T15:42:51.170Z,100241.77
2017-12-21T15:45:26.786Z,100247.32
2017-12-21T15:48:07.972Z,100242.33
2017-12-21T15:50:54.760Z,100250.27
2017-12-21T15:53:31.383Z,100244.24
2017-12-21T15:56:07.778Z,100243.95
2017-12-21T15:58:42.993Z,100241.72
2017-12-21T16:01:18.900Z,100243.82
2017-12-21T16:03:52.295Z,100249.09
2017-12-21T16:06:25.153Z,100252.95
2017-12-21T16:08:58.112Z,100260.17
2017-12-21T16:11:34.718Z,100257.73
2017-12-21T16:14:07.518Z,100265.79
2017-12-21T16:16:40.995Z,100272.94
2017-12-21T16:19:14.110Z,100277.51
2017-12-21T16:21:48.373Z,100274.86
2017-12-21T16:24:20.885Z,100279.47
2017-12-21T16:26:52.969Z,100278.61
2017-12-21T16:29:23.927Z,100278.06
2017-12-21T16:31:57.255Z,100277.20
2017-12-21T16:34:30.487Z,100284.89
2017-12-21T16:37:01.301Z,100281.52
2017-12-21T16:39:32.815Z,100282.08
2017-12-21T16:42:03.332Z,100289.68
2017-12-21T16:44:36.394Z,100283.92
2017-12-21T16:47:09.915Z,100280.88
2017-12-21T16:49:45.958Z,100281.98
2017-12-21T16:52:18.704Z,100279.77
2017-12-21T16:54:50.347Z,100281.82
2017-12-21T16:57:20.839Z,100280.11
2017-12-21T16:59:53.045Z,100290.41
2017-12-21T17:02:26.958Z,100290.70
2017-12-21T17:05:00.986Z,100292.16
2017-12-21T17:07:34.244Z,100283.09
2017-12-21T17:10:18.528Z,100281.94
2017-12-21T17:12:56.780Z,100279.77
2017-12-21T17:15:28.783Z,100293.20
2017-12-21T17:18:03.358Z,100300.13
2017-12-21T17:23:12.563Z,100311.46
2017-12-21T17:25:42.609Z,100310.52
2017-12-21T17:28:15.341Z,100313.94
2017-12-21T17:30:46.023Z,100320.64
2017-12-21T17:33:17.061Z,100325.81
2017-12-21T17:35:47.298Z,100330.90
2017-12-21T17:38:20.707Z,100329.02
2017-12-21T17:40:54.451Z,100323.62
2017-12-21T17:43:32.392Z,100319.15
2017-12-21T17:46:10.335Z,100324.63
2017-12-21T17:48:50.200Z,100326.45
2017-12-21T17:51:21.996Z,100335.47
2017-12-21T17:53:56.945Z,100341.31
2017-12-21T17:56:28.534Z,100344.53
2017-12-21T17:59:00.443Z,100341.66
2017-12-21T18:01:38.746Z,100341.82
2017-12-21T18:04:28.427Z,100340.30
2017-12-21T18:07:24.420Z,100338.55
2017-12-21T18:09:59.015Z,100344.19
2017-12-21T18:12:34.279Z,100358.92
2017-12-21T18:15:11.385Z,100361.65
2017-12-21T18:17:45.079Z,100361.48
2017-12-21T18:20:22.241Z,100362.30
2017-12-21T18:22:57.465Z,100361.35
2017-12-21T18:25:36.879Z,100359.00
2017-12-21T18:28:26.985Z,100356.73
2017-12-21T18:31:08.838Z,100363.19
2017-12-21T18:33:41.656Z,100364.86
2017-12-21T18:36:24.428Z,100361.10
2017-12-21T18:39:06.627Z,100369.39
2017-12-21T18:41:39.123Z,100378.75
2017-12-21T18:44:16.645Z,100370.11
2017-12-21T18:46:52.328Z,100363.53
2017-12-21T18:49:38.740Z,100361.45
2017-12-21T18:52:15.127Z,100362.59
2017-12-21T18:54:51.425Z,100359.64
2017-12-21T18:57:29.086Z,100356.44
2017-12-21T19:00:03.749Z,100358.35
2017-12-21T19:02:36.440Z,100358.49
2017-12-21T19:05:13.884Z,100362.28
2017-12-21T19:07:48.543Z,100356.20
2017-12-21T19:10:21.919Z,100357.58
2017-12-21T19:12:55.470Z,100357.89
2017-12-21T19:15:28.605Z,100357.75
2017-12-21T19:18:00.522Z,100362.83
2017-12-21T19:20:35.343Z,100374.47
2017-12-21T19:23:10.651Z,100386.48
2017-12-21T19:25:48.720Z,100385.55
2017-12-21T19:28:29.164Z,100388.87
2017-12-21T19:31:14.026Z,100396.02
2017-12-21T19:33:48.141Z,100398.02
2017-12-21T19:36:25.481Z,100405.70
2017-12-21T19:38:58.151Z,100416.56
2017-12-21T19:41:31.234Z,100403.33
2017-12-21T19:44:06.564Z,100403.75
2017-12-21T19:46:40.246Z,100412.16
2017-12-21T19:49:14.417Z,100416.79
2017-12-21T19:51:48.402Z,100414.25
2017-12-21T19:54:20.597Z,100412.57
2017-12-21T19:56:51.318Z,100416.63
2017-12-21T19:59:24.289Z,100414.88
2017-12-21T20:01:55.226Z,100419.40
2017-12-21T20:04:44.660Z,100414.95
2017-12-21T20:10:36.289Z,100394.34
2017-12-21T20:13:09.939Z,100392.28
2017-12-21T20:15:46.059Z,100401.33
2017-12-21T20:18:21.192Z,100389.19
2017-12-21T20:21:00.703Z,100382.66
2017-12-21T20:23:38.357Z,100388.69
2017-12-21T20:26:14.311Z,100396.21
2017-12-21T20:28:55.385Z,100401.50
2017-12-21T20:31:38.289Z,100395.55
2017-12-21T20:36:58.553Z,100384.72
2017-12-21T20:39:34.835Z,100381.50
2017-12-21T20:44:59.218Z,100394.10
2017-12-21T20:48:29.723Z,100396.75
2017-12-21T20:51:02.788Z,100395.31
2017-12-21T20:53:46.793Z,100394.42
2017-12-21T20:56:22.445Z,100392.44
2017-12-21T20:59:01.050Z,100383.10
2017-12-21T21:01:38.501Z,100387.01
2017-12-21T21:04:11.777Z,100379.25
2017-12-21T21:06:43.186Z,100382.02
2017-12-21T21:09:39.540Z,100389.36
2017-12-21T21:12:16.200Z,100394.19
2017-12-21T21:14:56.027Z,100392.48
2017-12-21T21:17:50.847Z,100387.85
2017-12-21T21:20:28.250Z,100393.06
2017-12-21T21:23:03.581Z,100394.03
2017-12-21T21:25:41.872Z,100398.70
2017-12-21T21:28:18.234Z,100395.90
2017-12-21T21:30:55.325Z,100388.98
2017-12-21T21:33:28.702Z,100381.67
2017-12-21T21:36:06.784Z,100379.30
2017-12-21T21:38:43.076Z,100382.84
2017-12-21T21:41:22.797Z,100384.23
2017-12-21T21:44:00.351Z,100389.05
2017-12-21T21:46:42.238Z,100392.31
2017-12-21T21:49:26.064Z,100393.95
2017-12-21T21:52:00.280Z,100391.11
2017-12-21T21:54:31.503Z,100395.97
2017-12-21T21:57:07.705Z,100399.29
2017-12-21T21:59:43.581Z,100396.41
2017-12-21T22:02:21.376Z,100390.38
2017-12-21T22:04:52.611Z,100396.95
2017-12-21T22:07:27.645Z,100394.55
2017-12-21T22:10:09.555Z,100388.78
2017-12-21T22:12:52.187Z,100380.49
2017-12-21T22:15:23.615Z,100383.13
2017-12-21T22:18:01.129Z,100380.38
2017-12-21T22:20:35.615Z,100383.67
2017-12-21T22:23:09.486Z,100385.44
2017-12-21T22:25:47.342Z,100383.84
2017-12-21T22:28:18.598Z,100387.58
2017-12-21T22:30:50.962Z,100376.71
2017-12-21T22:33:48.607Z,100379.32
2017-12-21T22:36:33.339Z,100382.62
2017-12-21T22:39:16.317Z,100384.22
2017-12-21T22:42:00.743Z,100378.42
2017-12-21T22:44:32.643Z,100376.36
2017-12-21T22:47:05.975Z,100375.59
2017-12-21T22:49:39.520Z,100380.30
2017-12-21T22:52:12.554Z,100378.32
2017-12-21T22:54:43.332Z,100373.16
2017-12-21T22:57:13.448Z,100372.25
2017-12-21T22:59:43.475Z,100374.77
2017-12-21T23:02:18.140Z,100377.55
2017-12-21T23:04:52.937Z,100379.73
2017-12-21T23:07:24.972Z,100381.24
2017-12-21T23:10:02.035Z,100377.73
2017-12-21T23:13:17.214Z,100372.73
2017-12-21T23:16:03.845Z,100380.39
2017-12-21T23:25:17.762Z,100380.46
2017-12-21T23:27:53.356Z,100378.59
2017-12-21T23:30:31.896Z,100374.55
2017-12-21T23:33:04.623Z,100378.76
2017-12-21T23:35:35.698Z,100373.75
2017-12-21T23:38:14.675Z,100374.30
2017-12-21T23:40:47.094Z,100367.45
2017-12-21T23:43:18.364Z,100365.35
2017-12-21T23:45:50.814Z,100366.42
2017-12-21T23:48:23.851Z,100363.98
2017-12-21T23:50:55.744Z,100364.67
2017-12-21T23:53:30.610Z,100363.81
2017-12-21T23:56:02.453Z,100370.45
2017-12-21T23:58:33.587Z,100370.25
